Lynn Lake Airport
CYYL : now visible

Airfield :











YOU CAN JOIN US ON...

 
LOGIN :

Register | Disclaimer

   EN    FR    IT 

 









Legend :    VFR   Marginal VFR   IFR   Intensive IFR   Very Intensive IFR
Visi :
Ceiling :
>= 8 km
>= 3000ft
5 to 8 km
1000 to 3000 ft
1500m to 5 km
500 to 1000 ft
800 to 1500m
200 to 500 ft
< 800m
< 200 ft
Symbols :   Thunderstorms  Fog  Heavy snow  Heavy precipitations  Wind > 20 kt







- Airport Elevation : 1170 ft
- IATA code : YYL


CYYL - Lynn Lake

CURRENT METAR :
  • 162200Z AUTO 12012G18KT 9SM CLR 23/13 A2972 RMK SLP073 DENSITY ALT 2600FT

EXPIRED METARs :
  • 162100Z AUTO 13014G19KT 9SM FEW100 24/13 A2973 RMK SLP076 DENSITY ALT 2600FT
  • 162000Z AUTO 14014G19KT 9SM BKN110 24/12 A2975 RMK SLP082 DENSITY ALT 2600FT

TAF TAF CYYL
Valid from the 16 at 19:00 until the 17 at 07:00 UTC


161838Z 1619/1707 13012KT P6SM BKN210
FM170300 16008KT P6SM BKN140 RMK FCST BASED ON AUTO OBS. NXT FCST BY 170100Z
No reported NOTAMs for that airfield.



MET'MAP, your aeronautical weather chart ! - Copyright ORBIFLY December 2007 - Disclaimer

ORBIFLY MET'MAP TEAM :

Programming & Development : Alexandra Zaïnal
Concept & Development : Baudouin d'Aumeries
Co-Development & Prog : Marc-Olivier Méhu
Technical & hardware support : Manuel Goepfert

Contact : metmap@orbifly.com




SOURCES & CREDITS :

   NOAA       Earth
Advisory